sensor_id;sensor_type;location;lat;lon;timestamp;P1;durP1;ratioP1;P2;durP2;ratioP2
11612;SDS011;5862;48.718;9.108;2022-08-21T00:00:16;4.05;;;1.58;;
11612;SDS011;5862;48.718;9.108;2022-08-21T00:02:48;2.25;;;1.38;;
11612;SDS011;5862;48.718;9.108;2022-08-21T00:05:30;1.67;;;1.15;;
11612;SDS011;5862;48.718;9.108;2022-08-21T00:07:57;2.67;;;1.50;;
11612;SDS011;5862;48.718;9.108;2022-08-21T00:10:27;1.67;;;1.15;;
11612;SDS011;5862;48.718;9.108;2022-08-21T00:12:53;4.05;;;1.50;;
11612;SDS011;5862;48.718;9.108;2022-08-21T00:15:22;1.80;;;1.27;;
11612;SDS011;5862;48.718;9.108;2022-08-21T00:17:52;2.13;;;1.23;;
11612;SDS011;5862;48.718;9.108;2022-08-21T00:20:20;2.30;;;1.48;;
11612;SDS011;5862;48.718;9.108;2022-08-21T00:22:49;3.15;;;1.20;;
11612;SDS011;5862;48.718;9.108;2022-08-21T00:25:22;2.60;;;1.33;;
11612;SDS011;5862;48.718;9.108;2022-08-21T00:27:51;2.05;;;1.30;;
11612;SDS011;5862;48.718;9.108;2022-08-21T00:30:19;2.40;;;1.42;;
11612;SDS011;5862;48.718;9.108;2022-08-21T00:32:49;3.10;;;1.50;;
11612;SDS011;5862;48.718;9.108;2022-08-21T00:35:18;2.25;;;1.30;;
11612;SDS011;5862;48.718;9.108;2022-08-21T00:37:46;3.85;;;1.40;;
11612;SDS011;5862;48.718;9.108;2022-08-21T00:40:17;2.08;;;1.42;;
11612;SDS011;5862;48.718;9.108;2022-08-21T00:42:45;1.23;;;1.13;;
11612;SDS011;5862;48.718;9.108;2022-08-21T00:45:22;1.67;;;1.10;;
11612;SDS011;5862;48.718;9.108;2022-08-21T00:47:49;2.70;;;1.17;;
11612;SDS011;5862;48.718;9.108;2022-08-21T00:50:17;2.45;;;1.20;;
11612;SDS011;5862;48.718;9.108;2022-08-21T00:52:47;1.95;;;1.40;;
11612;SDS011;5862;48.718;9.108;2022-08-21T00:55:15;1.95;;;1.27;;
11612;SDS011;5862;48.718;9.108;2022-08-21T00:57:45;2.75;;;1.70;;
11612;SDS011;5862;48.718;9.108;2022-08-21T01:00:17;2.78;;;1.48;;
11612;SDS011;5862;48.718;9.108;2022-08-21T01:02:46;2.17;;;1.40;;
11612;SDS011;5862;48.718;9.108;2022-08-21T01:05:13;2.10;;;1.40;;
11612;SDS011;5862;48.718;9.108;2022-08-21T01:07:40;2.35;;;1.27;;
11612;SDS011;5862;48.718;9.108;2022-08-21T01:10:11;1.92;;;1.30;;
11612;SDS011;5862;48.718;9.108;2022-08-21T01:12:50;2.13;;;1.33;;
11612;SDS011;5862;48.718;9.108;2022-08-21T01:15:17;2.95;;;1.48;;
11612;SDS011;5862;48.718;9.108;2022-08-21T01:17:44;2.50;;;1.50;;
11612;SDS011;5862;48.718;9.108;2022-08-21T01:20:11;2.92;;;1.67;;
11612;SDS011;5862;48.718;9.108;2022-08-21T01:22:37;1.95;;;1.40;;
11612;SDS011;5862;48.718;9.108;2022-08-21T01:25:05;2.85;;;1.58;;
11612;SDS011;5862;48.718;9.108;2022-08-21T01:27:33;3.38;;;1.48;;
11612;SDS011;5862;48.718;9.108;2022-08-21T01:32:36;2.28;;;1.40;;
11612;SDS011;5862;48.718;9.108;2022-08-21T01:35:03;2.25;;;1.35;;
11612;SDS011;5862;48.718;9.108;2022-08-21T01:37:30;2.25;;;1.30;;
11612;SDS011;5862;48.718;9.108;2022-08-21T01:39:57;3.05;;;1.67;;
11612;SDS011;5862;48.718;9.108;2022-08-21T01:42:28;3.63;;;1.65;;
11612;SDS011;5862;48.718;9.108;2022-08-21T01:44:57;2.13;;;1.40;;
11612;SDS011;5862;48.718;9.108;2022-08-21T01:47:24;4.03;;;1.40;;
11612;SDS011;5862;48.718;9.108;2022-08-21T01:49:50;1.60;;;1.38;;
11612;SDS011;5862;48.718;9.108;2022-08-21T01:52:17;3.25;;;1.50;;
11612;SDS011;5862;48.718;9.108;2022-08-21T01:54:44;2.05;;;1.35;;
11612;SDS011;5862;48.718;9.108;2022-08-21T01:57:20;2.72;;;1.48;;
11612;SDS011;5862;48.718;9.108;2022-08-21T01:59:48;2.78;;;1.40;;
11612;SDS011;5862;48.718;9.108;2022-08-21T02:02:15;1.92;;;1.25;;
11612;SDS011;5862;48.718;9.108;2022-08-21T02:04:41;1.85;;;1.30;;
11612;SDS011;5862;48.718;9.108;2022-08-21T02:07:10;2.80;;;1.50;;
11612;SDS011;5862;48.718;9.108;2022-08-21T02:09:38;1.63;;;1.50;;
11612;SDS011;5862;48.718;9.108;2022-08-21T02:12:05;2.97;;;1.50;;
11612;SDS011;5862;48.718;9.108;2022-08-21T02:14:34;2.65;;;1.60;;
11612;SDS011;5862;48.718;9.108;2022-08-21T02:17:01;1.40;;;1.10;;
11612;SDS011;5862;48.718;9.108;2022-08-21T02:19:34;2.22;;;1.63;;
11612;SDS011;5862;48.718;9.108;2022-08-21T02:22:07;1.40;;;1.30;;
11612;SDS011;5862;48.718;9.108;2022-08-21T02:24:37;4.43;;;1.90;;
11612;SDS011;5862;48.718;9.108;2022-08-21T02:27:19;2.03;;;1.48;;
11612;SDS011;5862;48.718;9.108;2022-08-21T02:29:54;3.00;;;1.90;;
11612;SDS011;5862;48.718;9.108;2022-08-21T02:32:23;2.85;;;1.63;;
11612;SDS011;5862;48.718;9.108;2022-08-21T02:34:53;2.45;;;1.60;;
11612;SDS011;5862;48.718;9.108;2022-08-21T02:37:20;2.22;;;1.50;;
11612;SDS011;5862;48.718;9.108;2022-08-21T02:39:46;1.58;;;1.48;;
11612;SDS011;5862;48.718;9.108;2022-08-21T02:42:15;2.17;;;1.50;;
11612;SDS011;5862;48.718;9.108;2022-08-21T02:44:42;3.13;;;1.80;;
11612;SDS011;5862;48.718;9.108;2022-08-21T02:47:10;3.20;;;1.50;;
11612;SDS011;5862;48.718;9.108;2022-08-21T02:49:39;2.88;;;1.48;;
11612;SDS011;5862;48.718;9.108;2022-08-21T02:52:07;2.60;;;1.40;;
11612;SDS011;5862;48.718;9.108;2022-08-21T02:54:33;4.18;;;1.70;;
11612;SDS011;5862;48.718;9.108;2022-08-21T02:57:00;2.50;;;1.40;;
11612;SDS011;5862;48.718;9.108;2022-08-21T02:59:26;2.45;;;1.80;;
11612;SDS011;5862;48.718;9.108;2022-08-21T03:01:55;1.65;;;1.30;;
11612;SDS011;5862;48.718;9.108;2022-08-21T03:04:23;2.40;;;1.70;;
11612;SDS011;5862;48.718;9.108;2022-08-21T03:06:50;3.13;;;1.38;;
11612;SDS011;5862;48.718;9.108;2022-08-21T03:09:17;3.80;;;1.25;;
11612;SDS011;5862;48.718;9.108;2022-08-21T03:11:43;1.88;;;1.65;;
11612;SDS011;5862;48.718;9.108;2022-08-21T03:14:10;1.60;;;1.27;;
11612;SDS011;5862;48.718;9.108;2022-08-21T03:16:39;2.67;;;1.70;;
11612;SDS011;5862;48.718;9.108;2022-08-21T03:19:05;1.65;;;1.23;;
11612;SDS011;5862;48.718;9.108;2022-08-21T03:21:31;1.77;;;1.40;;
11612;SDS011;5862;48.718;9.108;2022-08-21T03:23:59;2.07;;;1.40;;
11612;SDS011;5862;48.718;9.108;2022-08-21T03:26:29;4.20;;;1.90;;
11612;SDS011;5862;48.718;9.108;2022-08-21T03:28:59;1.88;;;1.40;;
11612;SDS011;5862;48.718;9.108;2022-08-21T03:31:25;2.15;;;1.80;;
11612;SDS011;5862;48.718;9.108;2022-08-21T03:33:59;2.40;;;1.60;;
11612;SDS011;5862;48.718;9.108;2022-08-21T03:36:28;2.58;;;1.73;;
11612;SDS011;5862;48.718;9.108;2022-08-21T03:38:57;2.45;;;1.70;;
11612;SDS011;5862;48.718;9.108;2022-08-21T03:41:24;2.30;;;1.65;;
11612;SDS011;5862;48.718;9.108;2022-08-21T03:43:50;3.20;;;2.15;;
11612;SDS011;5862;48.718;9.108;2022-08-21T03:46:19;2.00;;;1.65;;
11612;SDS011;5862;48.718;9.108;2022-08-21T03:48:46;2.83;;;1.88;;
11612;SDS011;5862;48.718;9.108;2022-08-21T03:51:15;2.47;;;1.45;;
11612;SDS011;5862;48.718;9.108;2022-08-21T03:53:42;2.45;;;1.58;;
11612;SDS011;5862;48.718;9.108;2022-08-21T03:56:08;2.67;;;1.83;;
11612;SDS011;5862;48.718;9.108;2022-08-21T03:58:35;2.58;;;1.50;;
11612;SDS011;5862;48.718;9.108;2022-08-21T04:01:02;3.38;;;1.70;;
11612;SDS011;5862;48.718;9.108;2022-08-21T04:03:30;3.28;;;1.95;;
11612;SDS011;5862;48.718;9.108;2022-08-21T04:05:59;2.85;;;1.85;;
11612;SDS011;5862;48.718;9.108;2022-08-21T04:08:28;1.42;;;1.30;;
11612;SDS011;5862;48.718;9.108;2022-08-21T04:10:57;3.80;;;1.92;;
11612;SDS011;5862;48.718;9.108;2022-08-21T04:13:24;3.33;;;2.00;;
11612;SDS011;5862;48.718;9.108;2022-08-21T04:15:55;2.60;;;1.70;;
11612;SDS011;5862;48.718;9.108;2022-08-21T04:18:22;2.83;;;1.85;;
11612;SDS011;5862;48.718;9.108;2022-08-21T04:20:50;2.15;;;1.67;;
11612;SDS011;5862;48.718;9.108;2022-08-21T04:23:20;2.70;;;2.00;;
11612;SDS011;5862;48.718;9.108;2022-08-21T04:25:49;3.03;;;1.50;;
11612;SDS011;5862;48.718;9.108;2022-08-21T04:28:16;1.95;;;1.75;;
11612;SDS011;5862;48.718;9.108;2022-08-21T04:30:43;4.05;;;2.15;;
11612;SDS011;5862;48.718;9.108;2022-08-21T04:33:10;1.70;;;1.60;;
11612;SDS011;5862;48.718;9.108;2022-08-21T04:35:40;3.33;;;1.73;;
11612;SDS011;5862;48.718;9.108;2022-08-21T04:38:08;1.83;;;1.63;;
11612;SDS011;5862;48.718;9.108;2022-08-21T04:40:34;2.20;;;1.55;;
11612;SDS011;5862;48.718;9.108;2022-08-21T04:43:04;3.22;;;1.67;;
11612;SDS011;5862;48.718;9.108;2022-08-21T04:48:03;2.20;;;1.60;;
11612;SDS011;5862;48.718;9.108;2022-08-21T04:53:05;1.70;;;1.60;;
11612;SDS011;5862;48.718;9.108;2022-08-21T04:55:34;1.95;;;1.75;;
11612;SDS011;5862;48.718;9.108;2022-08-21T04:58:01;3.23;;;1.87;;
11612;SDS011;5862;48.718;9.108;2022-08-21T05:00:28;2.10;;;1.80;;
11612;SDS011;5862;48.718;9.108;2022-08-21T05:02:56;3.67;;;1.73;;
11612;SDS011;5862;48.718;9.108;2022-08-21T05:05:28;2.08;;;1.58;;
11612;SDS011;5862;48.718;9.108;2022-08-21T05:07:57;2.70;;;2.10;;
11612;SDS011;5862;48.718;9.108;2022-08-21T05:10:26;1.83;;;1.70;;
11612;SDS011;5862;48.718;9.108;2022-08-21T05:12:53;3.10;;;1.77;;
11612;SDS011;5862;48.718;9.108;2022-08-21T05:15:20;2.10;;;1.90;;
11612;SDS011;5862;48.718;9.108;2022-08-21T05:17:47;2.28;;;2.00;;
11612;SDS011;5862;48.718;9.108;2022-08-21T05:20:25;2.53;;;1.88;;
11612;SDS011;5862;48.718;9.108;2022-08-21T05:22:52;2.33;;;2.10;;
11612;SDS011;5862;48.718;9.108;2022-08-21T05:25:19;3.50;;;2.15;;
11612;SDS011;5862;48.718;9.108;2022-08-21T05:27:48;3.65;;;2.17;;
11612;SDS011;5862;48.718;9.108;2022-08-21T05:30:17;2.85;;;1.90;;
11612;SDS011;5862;48.718;9.108;2022-08-21T05:32:46;3.50;;;2.30;;
11612;SDS011;5862;48.718;9.108;2022-08-21T05:35:13;2.50;;;1.75;;
11612;SDS011;5862;48.718;9.108;2022-08-21T05:37:45;2.72;;;1.80;;
11612;SDS011;5862;48.718;9.108;2022-08-21T05:40:12;3.83;;;1.90;;
11612;SDS011;5862;48.718;9.108;2022-08-21T05:42:48;3.10;;;2.05;;
11612;SDS011;5862;48.718;9.108;2022-08-21T05:45:22;3.13;;;2.05;;
11612;SDS011;5862;48.718;9.108;2022-08-21T05:48:18;3.20;;;1.73;;
11612;SDS011;5862;48.718;9.108;2022-08-21T05:50:52;3.05;;;2.13;;
11612;SDS011;5862;48.718;9.108;2022-08-21T05:53:21;2.15;;;1.65;;
11612;SDS011;5862;48.718;9.108;2022-08-21T05:55:48;2.47;;;1.67;;
11612;SDS011;5862;48.718;9.108;2022-08-21T05:58:16;3.45;;;1.92;;
11612;SDS011;5862;48.718;9.108;2022-08-21T06:00:45;1.92;;;1.40;;
11612;SDS011;5862;48.718;9.108;2022-08-21T06:03:15;2.95;;;1.80;;
11612;SDS011;5862;48.718;9.108;2022-08-21T06:05:43;1.88;;;1.70;;
11612;SDS011;5862;48.718;9.108;2022-08-21T06:08:13;3.38;;;1.90;;
11612;SDS011;5862;48.718;9.108;2022-08-21T06:10:41;3.08;;;2.22;;
11612;SDS011;5862;48.718;9.108;2022-08-21T06:13:10;3.15;;;1.83;;
11612;SDS011;5862;48.718;9.108;2022-08-21T06:15:37;2.38;;;1.98;;
11612;SDS011;5862;48.718;9.108;2022-08-21T06:18:06;3.90;;;2.13;;
11612;SDS011;5862;48.718;9.108;2022-08-21T06:20:36;1.70;;;1.58;;
11612;SDS011;5862;48.718;9.108;2022-08-21T06:23:05;1.70;;;1.55;;
11612;SDS011;5862;48.718;9.108;2022-08-21T06:25:31;1.80;;;1.33;;
11612;SDS011;5862;48.718;9.108;2022-08-21T06:28:09;2.40;;;1.77;;
11612;SDS011;5862;48.718;9.108;2022-08-21T06:30:38;2.38;;;1.98;;
11612;SDS011;5862;48.718;9.108;2022-08-21T06:33:07;2.72;;;1.90;;
11612;SDS011;5862;48.718;9.108;2022-08-21T06:35:36;3.42;;;1.50;;
11612;SDS011;5862;48.718;9.108;2022-08-21T06:38:06;5.80;;;2.83;;
11612;SDS011;5862;48.718;9.108;2022-08-21T06:40:35;3.33;;;2.38;;
11612;SDS011;5862;48.718;9.108;2022-08-21T06:43:12;2.47;;;1.90;;
11612;SDS011;5862;48.718;9.108;2022-08-21T06:45:40;4.18;;;1.92;;
11612;SDS011;5862;48.718;9.108;2022-08-21T06:48:07;3.75;;;2.08;;
11612;SDS011;5862;48.718;9.108;2022-08-21T06:50:34;2.38;;;1.73;;
11612;SDS011;5862;48.718;9.108;2022-08-21T06:53:06;2.20;;;1.63;;
11612;SDS011;5862;48.718;9.108;2022-08-21T06:55:35;3.65;;;1.77;;
11612;SDS011;5862;48.718;9.108;2022-08-21T06:58:05;2.22;;;1.50;;
11612;SDS011;5862;48.718;9.108;2022-08-21T07:00:33;2.17;;;1.48;;
11612;SDS011;5862;48.718;9.108;2022-08-21T07:03:00;2.65;;;2.22;;
11612;SDS011;5862;48.718;9.108;2022-08-21T07:05:28;7.03;;;2.85;;
11612;SDS011;5862;48.718;9.108;2022-08-21T07:07:59;3.88;;;2.20;;
11612;SDS011;5862;48.718;9.108;2022-08-21T07:10:26;5.82;;;2.63;;
11612;SDS011;5862;48.718;9.108;2022-08-21T07:12:55;4.75;;;2.50;;
11612;SDS011;5862;48.718;9.108;2022-08-21T07:15:29;5.10;;;2.30;;
11612;SDS011;5862;48.718;9.108;2022-08-21T07:17:56;3.05;;;2.50;;
11612;SDS011;5862;48.718;9.108;2022-08-21T07:20:24;4.15;;;2.60;;
11612;SDS011;5862;48.718;9.108;2022-08-21T07:22:52;3.53;;;2.42;;
11612;SDS011;5862;48.718;9.108;2022-08-21T07:25:18;3.92;;;2.40;;
11612;SDS011;5862;48.718;9.108;2022-08-21T07:27:45;4.78;;;2.40;;
11612;SDS011;5862;48.718;9.108;2022-08-21T07:30:12;3.92;;;2.55;;
11612;SDS011;5862;48.718;9.108;2022-08-21T07:32:38;5.25;;;2.65;;
11612;SDS011;5862;48.718;9.108;2022-08-21T07:35:07;2.85;;;2.10;;
11612;SDS011;5862;48.718;9.108;2022-08-21T07:37:34;4.28;;;2.15;;
11612;SDS011;5862;48.718;9.108;2022-08-21T07:40:01;3.72;;;2.13;;
11612;SDS011;5862;48.718;9.108;2022-08-21T07:42:30;3.28;;;2.22;;
11612;SDS011;5862;48.718;9.108;2022-08-21T07:44:56;4.40;;;2.80;;
11612;SDS011;5862;48.718;9.108;2022-08-21T07:47:22;3.10;;;2.60;;
11612;SDS011;5862;48.718;9.108;2022-08-21T07:50:08;3.10;;;2.28;;
11612;SDS011;5862;48.718;9.108;2022-08-21T07:52:35;2.85;;;2.10;;
11612;SDS011;5862;48.718;9.108;2022-08-21T07:55:03;4.25;;;1.92;;
11612;SDS011;5862;48.718;9.108;2022-08-21T07:57:32;2.85;;;2.03;;
11612;SDS011;5862;48.718;9.108;2022-08-21T08:00:01;4.30;;;1.90;;
11612;SDS011;5862;48.718;9.108;2022-08-21T08:02:30;2.78;;;2.20;;
11612;SDS011;5862;48.718;9.108;2022-08-21T08:05:00;2.42;;;2.20;;
11612;SDS011;5862;48.718;9.108;2022-08-21T08:07:30;2.70;;;2.28;;
11612;SDS011;5862;48.718;9.108;2022-08-21T08:09:56;3.58;;;2.35;;
11612;SDS011;5862;48.718;9.108;2022-08-21T08:12:24;2.60;;;2.00;;
11612;SDS011;5862;48.718;9.108;2022-08-21T08:14:59;3.08;;;2.13;;
11612;SDS011;5862;48.718;9.108;2022-08-21T08:17:27;3.35;;;2.50;;
11612;SDS011;5862;48.718;9.108;2022-08-21T08:19:54;3.97;;;2.50;;
11612;SDS011;5862;48.718;9.108;2022-08-21T08:22:22;2.92;;;2.00;;
11612;SDS011;5862;48.718;9.108;2022-08-21T08:24:51;2.70;;;2.25;;
11612;SDS011;5862;48.718;9.108;2022-08-21T08:27:18;4.47;;;2.38;;
11612;SDS011;5862;48.718;9.108;2022-08-21T08:29:45;2.58;;;1.92;;
11612;SDS011;5862;48.718;9.108;2022-08-21T08:32:12;2.00;;;1.90;;
11612;SDS011;5862;48.718;9.108;2022-08-21T08:34:39;5.63;;;2.17;;
11612;SDS011;5862;48.718;9.108;2022-08-21T08:37:07;3.05;;;2.17;;
11612;SDS011;5862;48.718;9.108;2022-08-21T08:39:37;3.25;;;2.10;;
11612;SDS011;5862;48.718;9.108;2022-08-21T08:47:53;4.75;;;2.10;;
11612;SDS011;5862;48.718;9.108;2022-08-21T08:52:58;2.75;;;2.20;;
11612;SDS011;5862;48.718;9.108;2022-08-21T08:55:36;4.53;;;2.35;;
11612;SDS011;5862;48.718;9.108;2022-08-21T08:58:06;3.75;;;2.22;;
11612;SDS011;5862;48.718;9.108;2022-08-21T09:00:33;2.95;;;2.17;;
11612;SDS011;5862;48.718;9.108;2022-08-21T09:03:01;2.40;;;1.98;;
11612;SDS011;5862;48.718;9.108;2022-08-21T09:05:41;2.80;;;2.15;;
11612;SDS011;5862;48.718;9.108;2022-08-21T09:11:26;4.82;;;2.70;;
11612;SDS011;5862;48.718;9.108;2022-08-21T09:17:04;3.80;;;2.40;;
11612;SDS011;5862;48.718;9.108;2022-08-21T09:24:59;3.72;;;2.40;;
11612;SDS011;5862;48.718;9.108;2022-08-21T09:27:44;2.72;;;2.22;;
11612;SDS011;5862;48.718;9.108;2022-08-21T09:30:16;2.88;;;2.20;;
11612;SDS011;5862;48.718;9.108;2022-08-21T09:32:43;2.60;;;2.40;;
11612;SDS011;5862;48.718;9.108;2022-08-21T09:35:16;4.63;;;2.63;;
11612;SDS011;5862;48.718;9.108;2022-08-21T09:40:36;2.90;;;2.15;;
11612;SDS011;5862;48.718;9.108;2022-08-21T09:45:37;4.53;;;2.60;;
11612;SDS011;5862;48.718;9.108;2022-08-21T09:48:11;3.45;;;2.40;;
11612;SDS011;5862;48.718;9.108;2022-08-21T09:50:38;3.20;;;2.42;;
11612;SDS011;5862;48.718;9.108;2022-08-21T09:53:13;3.90;;;2.33;;
11612;SDS011;5862;48.718;9.108;2022-08-21T09:55:48;3.30;;;2.40;;
11612;SDS011;5862;48.718;9.108;2022-08-21T09:58:34;3.53;;;2.38;;
11612;SDS011;5862;48.718;9.108;2022-08-21T10:01:04;3.28;;;2.17;;
11612;SDS011;5862;48.718;9.108;2022-08-21T10:03:34;2.58;;;1.80;;
11612;SDS011;5862;48.718;9.108;2022-08-21T10:06:03;3.90;;;2.63;;
11612;SDS011;5862;48.718;9.108;2022-08-21T10:08:39;3.67;;;2.70;;
11612;SDS011;5862;48.718;9.108;2022-08-21T10:11:08;3.05;;;2.25;;
11612;SDS011;5862;48.718;9.108;2022-08-21T10:16:10;5.10;;;2.42;;
11612;SDS011;5862;48.718;9.108;2022-08-21T10:18:40;2.83;;;2.13;;
11612;SDS011;5862;48.718;9.108;2022-08-21T10:21:17;3.25;;;2.28;;
11612;SDS011;5862;48.718;9.108;2022-08-21T10:35:33;3.20;;;2.08;;
11612;SDS011;5862;48.718;9.108;2022-08-21T10:43:51;2.90;;;2.20;;
11612;SDS011;5862;48.718;9.108;2022-08-21T10:57:19;4.60;;;2.40;;
11612;SDS011;5862;48.718;9.108;2022-08-21T11:03:01;4.68;;;2.50;;
11612;SDS011;5862;48.718;9.108;2022-08-21T11:05:37;4.32;;;3.08;;
11612;SDS011;5862;48.718;9.108;2022-08-21T11:08:21;7.03;;;3.30;;
11612;SDS011;5862;48.718;9.108;2022-08-21T11:10:52;7.90;;;3.20;;
11612;SDS011;5862;48.718;9.108;2022-08-21T11:19:59;5.07;;;2.72;;
11612;SDS011;5862;48.718;9.108;2022-08-21T11:24:54;2.45;;;2.20;;
11612;SDS011;5862;48.718;9.108;2022-08-21T11:27:27;3.13;;;2.00;;
11612;SDS011;5862;48.718;9.108;2022-08-21T11:30:00;2.08;;;1.85;;
11612;SDS011;5862;48.718;9.108;2022-08-21T11:41:14;2.55;;;1.90;;
11612;SDS011;5862;48.718;9.108;2022-08-21T11:43:52;3.15;;;2.20;;
11612;SDS011;5862;48.718;9.108;2022-08-21T12:00:33;4.85;;;2.80;;
11612;SDS011;5862;48.718;9.108;2022-08-21T12:03:09;3.53;;;2.25;;
11612;SDS011;5862;48.718;9.108;2022-08-21T12:05:42;4.53;;;2.70;;
11612;SDS011;5862;48.718;9.108;2022-08-21T12:10:38;4.50;;;2.75;;
11612;SDS011;5862;48.718;9.108;2022-08-21T12:13:11;6.07;;;3.10;;
11612;SDS011;5862;48.718;9.108;2022-08-21T12:16:12;5.65;;;2.63;;
11612;SDS011;5862;48.718;9.108;2022-08-21T12:18:44;4.15;;;2.80;;
11612;SDS011;5862;48.718;9.108;2022-08-21T12:21:21;3.80;;;2.55;;
11612;SDS011;5862;48.718;9.108;2022-08-21T12:24:00;3.20;;;2.47;;
11612;SDS011;5862;48.718;9.108;2022-08-21T12:26:33;3.78;;;2.20;;
11612;SDS011;5862;48.718;9.108;2022-08-21T12:32:17;2.90;;;2.35;;
11612;SDS011;5862;48.718;9.108;2022-08-21T12:40:03;5.25;;;2.88;;
11612;SDS011;5862;48.718;9.108;2022-08-21T12:42:37;3.60;;;2.50;;
11612;SDS011;5862;48.718;9.108;2022-08-21T12:45:11;5.07;;;2.70;;
11612;SDS011;5862;48.718;9.108;2022-08-21T12:47:48;3.22;;;2.50;;
11612;SDS011;5862;48.718;9.108;2022-08-21T12:50:20;3.75;;;2.60;;
11612;SDS011;5862;48.718;9.108;2022-08-21T12:52:59;3.33;;;2.13;;
11612;SDS011;5862;48.718;9.108;2022-08-21T12:55:29;3.42;;;2.60;;
11612;SDS011;5862;48.718;9.108;2022-08-21T12:57:58;4.03;;;2.47;;
11612;SDS011;5862;48.718;9.108;2022-08-21T13:00:25;3.67;;;2.60;;
11612;SDS011;5862;48.718;9.108;2022-08-21T13:02:53;3.72;;;2.67;;
11612;SDS011;5862;48.718;9.108;2022-08-21T13:07:50;3.25;;;2.72;;
11612;SDS011;5862;48.718;9.108;2022-08-21T13:10:21;3.65;;;2.53;;
11612;SDS011;5862;48.718;9.108;2022-08-21T13:12:50;2.55;;;2.20;;
11612;SDS011;5862;48.718;9.108;2022-08-21T13:15:34;2.92;;;2.20;;
11612;SDS011;5862;48.718;9.108;2022-08-21T13:18:03;3.63;;;2.33;;
11612;SDS011;5862;48.718;9.108;2022-08-21T13:20:36;2.92;;;2.40;;
11612;SDS011;5862;48.718;9.108;2022-08-21T13:23:22;3.92;;;2.65;;
11612;SDS011;5862;48.718;9.108;2022-08-21T13:25:51;4.20;;;2.35;;
11612;SDS011;5862;48.718;9.108;2022-08-21T13:28:18;4.80;;;2.47;;
11612;SDS011;5862;48.718;9.108;2022-08-21T13:30:45;4.78;;;2.70;;
11612;SDS011;5862;48.718;9.108;2022-08-21T13:33:22;2.92;;;2.50;;
11612;SDS011;5862;48.718;9.108;2022-08-21T13:38:33;5.95;;;2.75;;
11612;SDS011;5862;48.718;9.108;2022-08-21T13:43:36;3.35;;;2.47;;
11612;SDS011;5862;48.718;9.108;2022-08-21T13:46:07;3.55;;;2.10;;
11612;SDS011;5862;48.718;9.108;2022-08-21T13:48:38;2.88;;;2.22;;
11612;SDS011;5862;48.718;9.108;2022-08-21T13:51:05;4.68;;;2.17;;
11612;SDS011;5862;48.718;9.108;2022-08-21T13:53:33;3.72;;;2.55;;
11612;SDS011;5862;48.718;9.108;2022-08-21T13:56:21;3.30;;;2.50;;
11612;SDS011;5862;48.718;9.108;2022-08-21T13:58:49;3.35;;;2.58;;
11612;SDS011;5862;48.718;9.108;2022-08-21T14:01:31;3.67;;;2.17;;
11612;SDS011;5862;48.718;9.108;2022-08-21T14:04:04;4.45;;;2.85;;
11612;SDS011;5862;48.718;9.108;2022-08-21T14:06:35;4.57;;;3.13;;
11612;SDS011;5862;48.718;9.108;2022-08-21T14:09:25;5.03;;;2.63;;
11612;SDS011;5862;48.718;9.108;2022-08-21T14:11:53;6.53;;;2.72;;
11612;SDS011;5862;48.718;9.108;2022-08-21T14:14:24;6.60;;;2.75;;
11612;SDS011;5862;48.718;9.108;2022-08-21T14:16:59;3.30;;;2.67;;
11612;SDS011;5862;48.718;9.108;2022-08-21T14:19:49;2.53;;;1.70;;
11612;SDS011;5862;48.718;9.108;2022-08-21T14:24:48;2.88;;;2.55;;
11612;SDS011;5862;48.718;9.108;2022-08-21T14:27:20;4.43;;;2.88;;
11612;SDS011;5862;48.718;9.108;2022-08-21T14:29:49;3.72;;;2.97;;
11612;SDS011;5862;48.718;9.108;2022-08-21T14:32:23;4.20;;;2.95;;
11612;SDS011;5862;48.718;9.108;2022-08-21T14:34:54;3.08;;;2.38;;
11612;SDS011;5862;48.718;9.108;2022-08-21T14:37:24;4.70;;;2.95;;
11612;SDS011;5862;48.718;9.108;2022-08-21T14:39:51;3.72;;;2.50;;
11612;SDS011;5862;48.718;9.108;2022-08-21T14:42:20;4.75;;;2.70;;
11612;SDS011;5862;48.718;9.108;2022-08-21T14:44:52;3.75;;;2.30;;
11612;SDS011;5862;48.718;9.108;2022-08-21T14:47:22;5.60;;;2.70;;
11612;SDS011;5862;48.718;9.108;2022-08-21T14:49:51;5.18;;;2.85;;
11612;SDS011;5862;48.718;9.108;2022-08-21T14:52:20;4.25;;;2.95;;
11612;SDS011;5862;48.718;9.108;2022-08-21T14:54:49;3.15;;;2.60;;
11612;SDS011;5862;48.718;9.108;2022-08-21T14:57:17;4.40;;;2.97;;
11612;SDS011;5862;48.718;9.108;2022-08-21T14:59:44;3.45;;;2.20;;
11612;SDS011;5862;48.718;9.108;2022-08-21T15:02:14;4.10;;;2.40;;
11612;SDS011;5862;48.718;9.108;2022-08-21T15:04:43;2.42;;;2.22;;
11612;SDS011;5862;48.718;9.108;2022-08-21T15:07:09;2.83;;;2.25;;
11612;SDS011;5862;48.718;9.108;2022-08-21T15:09:36;3.92;;;2.50;;
11612;SDS011;5862;48.718;9.108;2022-08-21T15:12:03;3.10;;;2.20;;
11612;SDS011;5862;48.718;9.108;2022-08-21T15:14:30;3.10;;;2.15;;
11612;SDS011;5862;48.718;9.108;2022-08-21T15:16:59;3.42;;;1.98;;
11612;SDS011;5862;48.718;9.108;2022-08-21T15:19:26;4.28;;;2.08;;
11612;SDS011;5862;48.718;9.108;2022-08-21T15:21:53;3.22;;;2.03;;
11612;SDS011;5862;48.718;9.108;2022-08-21T15:24:19;4.63;;;2.30;;
11612;SDS011;5862;48.718;9.108;2022-08-21T15:26:46;2.28;;;2.08;;
11612;SDS011;5862;48.718;9.108;2022-08-21T15:29:13;3.63;;;1.73;;
11612;SDS011;5862;48.718;9.108;2022-08-21T15:31:55;3.17;;;2.15;;
11612;SDS011;5862;48.718;9.108;2022-08-21T15:34:26;3.05;;;1.67;;
11612;SDS011;5862;48.718;9.108;2022-08-21T15:36:57;3.42;;;2.38;;
11612;SDS011;5862;48.718;9.108;2022-08-21T15:39:27;4.45;;;2.45;;
11612;SDS011;5862;48.718;9.108;2022-08-21T15:42:02;3.10;;;2.10;;
11612;SDS011;5862;48.718;9.108;2022-08-21T15:44:37;4.15;;;2.40;;
11612;SDS011;5862;48.718;9.108;2022-08-21T15:47:12;2.40;;;2.10;;
11612;SDS011;5862;48.718;9.108;2022-08-21T15:49:40;2.60;;;1.90;;
11612;SDS011;5862;48.718;9.108;2022-08-21T15:52:13;2.03;;;1.80;;
11612;SDS011;5862;48.718;9.108;2022-08-21T15:54:43;2.55;;;1.90;;
11612;SDS011;5862;48.718;9.108;2022-08-21T15:57:12;3.30;;;1.73;;
11612;SDS011;5862;48.718;9.108;2022-08-21T15:59:40;3.83;;;1.83;;
11612;SDS011;5862;48.718;9.108;2022-08-21T16:02:13;5.43;;;2.10;;
11612;SDS011;5862;48.718;9.108;2022-08-21T16:04:42;3.42;;;2.00;;
11612;SDS011;5862;48.718;9.108;2022-08-21T16:07:08;3.58;;;1.80;;
11612;SDS011;5862;48.718;9.108;2022-08-21T16:09:35;5.32;;;2.15;;
11612;SDS011;5862;48.718;9.108;2022-08-21T16:12:02;3.55;;;2.78;;
11612;SDS011;5862;48.718;9.108;2022-08-21T16:14:33;5.20;;;2.20;;
11612;SDS011;5862;48.718;9.108;2022-08-21T16:17:06;2.80;;;2.05;;
11612;SDS011;5862;48.718;9.108;2022-08-21T16:19:33;3.03;;;2.40;;
11612;SDS011;5862;48.718;9.108;2022-08-21T16:22:00;4.22;;;2.30;;
11612;SDS011;5862;48.718;9.108;2022-08-21T16:24:29;3.53;;;2.10;;
11612;SDS011;5862;48.718;9.108;2022-08-21T16:26:55;3.47;;;2.05;;
11612;SDS011;5862;48.718;9.108;2022-08-21T16:29:25;4.15;;;2.55;;
11612;SDS011;5862;48.718;9.108;2022-08-21T16:31:57;3.03;;;2.28;;
11612;SDS011;5862;48.718;9.108;2022-08-21T16:34:23;3.67;;;2.40;;
11612;SDS011;5862;48.718;9.108;2022-08-21T16:36:53;5.00;;;2.45;;
11612;SDS011;5862;48.718;9.108;2022-08-21T16:39:21;3.38;;;2.17;;
11612;SDS011;5862;48.718;9.108;2022-08-21T16:41:52;3.90;;;2.40;;
11612;SDS011;5862;48.718;9.108;2022-08-21T16:44:19;2.90;;;2.20;;
11612;SDS011;5862;48.718;9.108;2022-08-21T16:46:47;4.25;;;2.75;;
11612;SDS011;5862;48.718;9.108;2022-08-21T16:49:14;2.92;;;2.15;;
11612;SDS011;5862;48.718;9.108;2022-08-21T16:51:41;3.85;;;2.20;;
11612;SDS011;5862;48.718;9.108;2022-08-21T16:54:11;3.63;;;2.10;;
11612;SDS011;5862;48.718;9.108;2022-08-21T16:56:41;4.20;;;2.50;;
11612;SDS011;5862;48.718;9.108;2022-08-21T16:59:12;2.45;;;2.20;;
11612;SDS011;5862;48.718;9.108;2022-08-21T17:01:40;3.72;;;2.65;;
11612;SDS011;5862;48.718;9.108;2022-08-21T17:04:08;3.20;;;2.20;;
11612;SDS011;5862;48.718;9.108;2022-08-21T17:06:35;3.60;;;2.60;;
11612;SDS011;5862;48.718;9.108;2022-08-21T17:09:03;3.13;;;2.40;;
11612;SDS011;5862;48.718;9.108;2022-08-21T17:11:34;4.72;;;2.25;;
11612;SDS011;5862;48.718;9.108;2022-08-21T17:14:14;3.17;;;2.20;;
11612;SDS011;5862;48.718;9.108;2022-08-21T17:16:43;4.75;;;2.13;;